Time;durP1;ratioP1;P1;durP2;ratioP2;P2;SDS_P1;SDS_P2;PMS_P1;PMS_P2;Temp;Humidity;BMP_temperature;BMP_pressure;BME280_temperature;BME280_humidity;BME280_pressure;Samples;Min_cycle;Max_cycle;Signal;HPM_P1;HPM_P2
2023/10/15 00:00:26;;;;;;;1999.90;999.90;;;;;;;15.72;56.97;101720.03;10339247;28;20053;-69
2023/10/15 00:05:29;;;;;;;1999.90;999.90;;;;;;;16.21;55.27;101730.06;10372389;28;20056;-69
2023/10/15 00:10:31;;;;;;;1999.90;999.90;;;;;;;15.79;56.15;101735.41;10338682;28;20041;-69
2023/10/15 00:15:33;;;;;;;1999.90;999.90;;;;;;;16.23;56.29;101724.66;10354734;28;20186;-69
2023/10/15 00:20:38;;;;;;;1999.90;999.90;;;;;;;16.64;55.85;101708.66;10371989;28;20046;-69
2023/10/15 00:25:47;;;;;;;1999.90;999.90;;;;;;;16.16;56.71;101685.44;10355319;28;20085;-68
2023/10/15 00:30:50;;;;;;;1999.90;999.90;;;;;;;16.50;56.96;101687.59;10371578;28;20132;-68
2023/10/15 00:35:56;;;;;;;1999.90;999.90;;;;;;;17.08;56.49;101701.25;10371725;28;20073;-68
2023/10/15 00:41:07;;;;;;;1999.90;999.90;;;;;;;17.02;56.94;101713.09;10371943;28;20046;-68
2023/10/15 00:46:13;;;;;;;1999.90;999.90;;;;;;;16.89;56.69;101733.44;10371373;28;20077;-69
2023/10/15 00:51:17;;;;;;;1999.90;999.90;;;;;;;16.58;57.57;101739.97;10354783;28;20046;-68
2023/10/15 00:56:25;;;;;;;1999.90;999.90;;;;;;;16.63;58.51;101737.84;10354113;28;20085;-68
2023/10/15 01:01:33;;;;;;;1999.90;999.90;;;;;;;17.04;56.90;101723.59;10353926;28;20081;-68
2023/10/15 01:06:38;;;;;;;1999.90;999.90;;;;;;;16.42;59.10;101709.25;10371153;28;20050;-67
2023/10/15 01:11:44;;;;;;;1999.90;999.90;;;;;;;16.55;58.55;101706.63;10337080;28;20505;-67
2023/10/15 01:16:47;;;;;;;1999.90;999.90;;;;;;;15.88;59.41;101701.44;10353915;28;20115;-67
2023/10/15 01:21:53;;;;;;;1999.90;999.90;;;;;;;16.81;58.66;101712.78;10370583;28;20099;-66
2023/10/15 01:32:54;;;;;;;1999.90;999.90;;;;;;;15.76;61.80;101695.16;10369634;28;20046;-67
2023/10/15 01:37:44;;;;;;;1999.90;999.90;;;;;;;16.25;59.18;101697.19;10360427;28;20057;-67
2023/10/15 01:42:53;;;;;;;1999.90;999.90;;;;;;;16.69;58.40;101669.53;10369466;28;20056;-67
2023/10/15 01:48:24;;;;;;;1999.90;999.90;;;;;;;16.11;59.12;101655.84;10369817;28;20065;-67
2023/10/15 01:53:23;;;;;;;1999.90;999.90;;;;;;;15.41;61.05;101637.53;10368943;28;20050;-66
2023/10/15 01:58:32;;;;;;;1999.90;999.90;;;;;;;16.15;59.24;101637.97;10369537;28;20071;-67
2023/10/15 02:03:37;;;;;;;1999.90;999.90;;;;;;;16.18;60.75;101647.50;10353058;28;20125;-67
2023/10/15 02:08:39;;;;;;;1999.90;999.90;;;;;;;16.44;58.52;101659.81;10369125;28;20128;-67
2023/10/15 02:13:45;;;;;;;1999.90;999.90;;;;;;;16.37;59.19;101676.16;10369078;28;20061;-67
2023/10/15 02:18:51;;;;;;;1999.90;999.90;;;;;;;14.99;62.76;101682.34;10351635;28;20129;-67
2023/10/15 02:23:56;;;;;;;1999.90;999.90;;;;;;;15.27;62.80;101674.53;10367799;28;20060;-67
2023/10/15 02:29:07;;;;;;;1999.90;999.90;;;;;;;15.26;62.75;101681.56;10369228;28;20044;-67
2023/10/15 02:34:14;;;;;;;1999.90;999.90;;;;;;;14.45;63.91;101676.84;10368659;28;20082;-67
2023/10/15 02:39:17;;;;;;;1999.90;999.90;;;;;;;14.67;65.02;101669.34;10367729;28;20054;-67
2023/10/15 02:44:19;;;;;;;1999.90;999.90;;;;;;;14.39;64.15;101662.25;10367623;28;20504;-67
2023/10/15 02:49:25;;;;;;;1999.90;999.90;;;;;;;14.42;65.13;101659.41;10367482;28;20050;-67
2023/10/15 02:54:28;;;;;;;1999.90;999.90;;;;;;;15.05;63.29;101637.16;10368066;28;20057;-67
2023/10/15 02:59:31;;;;;;;1999.90;999.90;;;;;;;14.97;63.27;101649.97;10350663;28;20053;-67
2023/10/15 03:04:33;;;;;;;1999.90;999.90;;;;;;;14.88;64.17;101616.28;10367771;28;20060;-67
2023/10/15 03:09:36;;;;;;;1999.90;999.90;;;;;;;14.52;64.38;101611.44;10367597;28;20129;-67
2023/10/15 03:14:38;;;;;;;1999.90;999.90;;;;;;;14.52;63.97;101619.34;10366883;28;20054;-67
2023/10/15 03:19:42;;;;;;;1999.90;999.90;;;;;;;14.76;66.08;101615.25;10367398;28;20046;-67
2023/10/15 03:24:44;;;;;;;1999.90;999.90;;;;;;;14.75;64.82;101605.63;10366628;28;20050;-67
2023/10/15 03:29:47;;;;;;;1999.90;999.90;;;;;;;14.91;63.32;101610.81;10367113;28;20057;-67
2023/10/15 03:34:59;;;;;;;1999.90;999.90;;;;;;;15.45;61.90;101614.44;10366950;28;20513;-67
2023/10/15 03:40:10;;;;;;;1999.90;999.90;;;;;;;14.34;64.13;101611.63;10373885;28;20073;-67
2023/10/15 03:45:26;;;;;;;1999.90;999.90;;;;;;;13.35;65.13;101637.53;10373118;28;20132;-67
2023/10/15 03:50:29;;;;;;;1999.90;999.90;;;;;;;14.21;63.50;101635.22;10372912;28;20477;-68
2023/10/15 03:55:31;;;;;;;1999.90;999.90;;;;;;;14.81;62.06;101643.94;10356149;28;20057;-68
2023/10/15 04:00:46;;;;;;;1999.90;999.90;;;;;;;14.16;64.43;101662.78;10355647;28;20566;-68
2023/10/15 04:06:01;;;;;;;1999.90;999.90;;;;;;;14.92;64.61;101667.03;10372471;28;20505;-68
2023/10/15 04:11:04;;;;;;;1999.90;999.90;;;;;;;14.59;63.59;101678.69;10355799;28;20481;-68
2023/10/15 04:16:06;;;;;;;1999.90;999.90;;;;;;;14.60;63.56;101685.66;10372154;28;20607;-68
2023/10/15 04:21:08;;;;;;;1999.90;999.90;;;;;;;14.48;64.04;101692.47;10338760;28;20402;-68
2023/10/15 04:26:14;;;;;;;1999.90;999.90;;;;;;;15.24;62.25;101699.28;10372426;28;20046;-68
2023/10/15 04:31:22;;;;;;;1999.90;999.90;;;;;;;14.71;64.70;101706.06;10354820;28;20486;-67
2023/10/15 04:36:25;;;;;;;1999.90;999.90;;;;;;;15.02;63.34;101705.91;10371557;28;20064;-68
2023/10/15 04:41:33;;;;;;;1999.90;999.90;;;;;;;15.11;63.66;101678.09;10371248;28;20053;-69
2023/10/15 04:46:41;;;;;;;1999.90;999.90;;;;;;;16.02;60.50;101669.69;10371497;28;20129;-67
2023/10/15 04:51:44;;;;;;;1999.90;999.90;;;;;;;16.00;58.62;101686.56;10472168;23;20083;-65
2023/10/15 04:56:47;;;;;;;1999.90;999.90;;;;;;;16.33;59.41;101694.88;10542409;28;20484;-65
2023/10/15 05:01:50;;;;;;;1999.90;999.90;;;;;;;14.80;64.12;101711.66;10524392;28;20403;-65
2023/10/15 05:06:52;;;;;;;1999.90;999.90;;;;;;;14.45;64.32;101700.56;10542021;28;20082;-65
2023/10/15 05:11:54;;;;;;;1999.90;999.90;;;;;;;14.76;62.78;101667.09;10542343;28;20078;-65
2023/10/15 05:16:59;;;;;;;1999.90;999.90;;;;;;;15.02;58.91;101641.78;10541579;28;20048;-65
2023/10/15 05:22:02;;;;;;;1999.90;999.90;;;;;;;15.53;59.75;101649.09;10542156;28;20069;-65
2023/10/15 05:27:04;;;;;;;1999.90;999.90;;;;;;;15.55;59.02;101629.59;10541740;28;20060;-65
2023/10/15 05:32:07;;;;;;;1999.90;999.90;;;;;;;14.67;59.87;101677.25;10541624;28;20047;-65
2023/10/15 05:37:09;;;;;;;1999.90;999.90;;;;;;;14.47;62.07;101681.09;10541442;28;20052;-65
2023/10/15 05:42:12;;;;;;;1999.90;999.90;;;;;;;13.97;62.24;101679.66;10541306;28;20058;-66
2023/10/15 05:47:14;;;;;;;1999.90;999.90;;;;;;;15.01;59.66;101691.03;10540683;28;20386;-66
2023/10/15 05:52:16;;;;;;;1999.90;999.90;;;;;;;15.72;57.36;101709.47;10540119;28;20082;-66
2023/10/15 05:57:22;;;;;;;1999.90;999.90;;;;;;;15.40;58.35;101715.84;10540237;28;20058;-66
2023/10/15 06:02:24;;;;;;;1999.90;999.90;;;;;;;15.11;59.19;101727.38;10540653;28;20121;-65
2023/10/15 06:07:26;;;;;;;1999.90;999.90;;;;;;;14.17;61.45;101722.38;10539812;28;20404;-65
2023/10/15 06:12:29;;;;;;;1999.90;999.90;;;;;;;14.60;61.68;101722.53;10505920;28;20048;-65
2023/10/15 06:17:32;;;;;;;1999.90;999.90;;;;;;;15.08;59.63;101730.19;10540237;28;20048;-65
2023/10/15 06:22:35;;;;;;;1999.90;999.90;;;;;;;14.49;61.59;101750.34;10521807;28;20458;-65
2023/10/15 06:27:38;;;;;;;1999.90;999.90;;;;;;;14.35;62.25;101752.94;10522167;28;20059;-65
2023/10/15 06:32:41;;;;;;;1999.90;999.90;;;;;;;13.60;64.80;101752.78;10539892;28;20044;-65
2023/10/15 06:37:57;;;;;;;1999.90;999.90;;;;;;;14.12;63.87;101757.75;10539843;28;20209;-65
2023/10/15 06:43:00;;;;;;;1999.90;999.90;;;;;;;14.45;62.81;101746.19;10522591;28;20051;-66
2023/10/15 06:48:04;;;;;;;1999.90;999.90;;;;;;;14.01;64.08;101746.13;10539704;28;20056;-66
2023/10/15 06:53:07;;;;;;;1999.90;999.90;;;;;;;14.38;62.83;101760.66;10538976;28;20059;-65
2023/10/15 06:58:10;;;;;;;1999.90;999.90;;;;;;;14.17;62.91;101768.03;10521582;28;20058;-65
2023/10/15 07:03:15;;;;;;;1999.90;999.90;;;;;;;15.50;60.20;101773.31;10539379;28;20062;-65
2023/10/15 07:08:17;;;;;;;1999.90;999.90;;;;;;;15.21;60.95;101768.94;10521347;28;20135;-66
2023/10/15 07:13:20;;;;;;;1999.90;999.90;;;;;;;14.90;62.25;101784.94;10546931;28;20122;-66
2023/10/15 07:18:22;;;;;;;1999.90;999.90;;;;;;;14.63;64.08;101807.53;10546395;28;20061;-66
2023/10/15 07:23:25;;;;;;;1999.90;999.90;;;;;;;14.43;63.16;101786.75;10528867;28;20040;-65
2023/10/15 07:28:27;;;;;;;1999.90;999.90;;;;;;;15.75;62.07;101809.59;10545934;28;20477;-65
2023/10/15 07:33:30;;;;;;;1999.90;999.90;;;;;;;15.84;61.10;101822.25;10511798;28;20123;-66
2023/10/15 07:38:36;;;;;;;1999.90;999.90;;;;;;;15.49;61.37;101833.19;10546193;28;20082;-66
2023/10/15 07:43:38;;;;;;;1999.90;999.90;;;;;;;14.94;61.86;101837.38;10527930;28;20412;-65
2023/10/15 07:48:41;;;;;;;1999.90;999.90;;;;;;;14.89;63.87;101846.50;10545204;28;20386;-65
2023/10/15 07:53:43;;;;;;;1999.90;999.90;;;;;;;15.30;62.66;101849.31;10526920;28;20055;-66
2023/10/15 07:58:45;;;;;;;1999.90;999.90;;;;;;;15.37;61.30;101855.91;10544953;28;20050;-66
2023/10/15 08:03:48;;;;;;;1999.90;999.90;;;;;;;16.04;60.90;101862.38;10527125;28;20093;-66
2023/10/15 08:08:50;;;;;;;1999.90;999.90;;;;;;;16.42;60.06;101878.41;10527284;28;20059;-66
2023/10/15 08:13:53;;;;;;;1999.90;999.90;;;;;;;16.08;59.71;101885.84;10544710;28;20050;-66
2023/10/15 08:18:55;;;;;;;1999.90;999.90;;;;;;;15.88;61.74;101899.47;10510332;28;20048;-65
2023/10/15 08:23:58;;;;;;;1999.90;999.90;;;;;;;15.29;62.54;101905.63;10543669;28;20126;-65
2023/10/15 08:29:00;;;;;;;1999.90;999.90;;;;;;;14.99;63.15;101913.56;10525579;28;20409;-65
2023/10/15 08:34:03;;;;;;;1999.90;999.90;;;;;;;15.35;62.20;101901.81;10543935;28;20080;-65
2023/10/15 08:39:08;;;;;;;1999.90;999.90;;;;;;;16.14;61.54;101901.34;10543154;28;20044;-65
2023/10/15 08:44:13;;;;;;;1999.90;999.90;;;;;;;16.44;60.73;101916.19;10508893;28;20424;-65
2023/10/15 08:49:16;;;;;;;1999.90;999.90;;;;;;;16.67;60.07;101929.69;10525182;28;20048;-65
2023/10/15 08:54:25;;;;;;;1999.90;999.90;;;;;;;16.57;60.42;101929.44;10524461;28;20052;-65
2023/10/15 08:59:31;;;;;;;1999.90;999.90;;;;;;;16.90;60.99;101941.44;10542395;28;20492;-65
2023/10/15 09:04:34;;;;;;;1999.90;999.90;;;;;;;15.95;62.49;101936.00;10525503;28;20105;-66
2023/10/15 09:09:36;;;;;;;1999.90;999.90;;;;;;;17.00;61.65;101936.41;10542491;28;20044;-65
2023/10/15 09:14:46;;;;;;;1999.90;999.90;;;;;;;16.55;60.92;101947.19;10524363;28;20048;-66
2023/10/15 09:19:49;;;;;;;1999.90;999.90;;;;;;;16.99;60.35;101959.34;10542150;28;20176;-65
2023/10/15 09:24:51;;;;;;;1999.90;999.90;;;;;;;17.92;59.37;101955.75;10524041;28;20056;-66
2023/10/15 09:30:18;;;;;;;1999.90;999.90;;;;;;;16.56;59.19;101962.13;10522988;28;20488;-66
2023/10/15 09:35:21;;;;;;;1999.90;999.90;;;;;;;17.52;59.20;101977.88;10524028;28;20495;-66
2023/10/15 09:40:24;;;;;;;1999.90;999.90;;;;;;;16.24;59.54;101987.94;10523383;28;20052;-66
2023/10/15 09:45:30;;;;;;;1999.90;999.90;;;;;;;17.83;58.68;102005.72;10522722;28;20055;-66
2023/10/15 09:50:32;;;;;;;1999.90;999.90;;;;;;;16.99;59.71;102014.06;10522647;28;20048;-66
2023/10/15 09:55:40;;;;;;;1999.90;999.90;;;;;;;17.21;60.44;102032.84;10523723;28;20048;-66
2023/10/15 10:01:09;;;;;;;1999.90;999.90;;;;;;;18.01;59.10;102034.59;10522856;28;20040;-66
2023/10/15 10:06:40;;;;;;;1999.90;999.90;;;;;;;18.12;59.88;102033.84;10522845;28;20082;-66
2023/10/15 10:11:51;;;;;;;1999.90;999.90;;;;;;;18.57;58.91;102027.06;10521823;28;20404;-66
2023/10/15 10:16:54;;;;;;;1999.90;999.90;;;;;;;17.46;60.08;102028.56;10521793;28;20662;-66
2023/10/15 10:21:56;;;;;;;1999.90;999.90;;;;;;;16.96;58.76;102030.97;10521642;28;20058;-66
2023/10/15 10:27:07;;;;;;;1999.90;999.90;;;;;;;17.34;59.95;102034.69;10522300;28;20066;-66
2023/10/15 10:32:15;;;;;;;1999.90;999.90;;;;;;;19.18;58.23;102026.25;10539969;28;20048;-66
2023/10/15 10:37:22;;;;;;;1999.90;999.90;;;;;;;21.27;57.04;102032.06;10539954;28;20048;-66
2023/10/15 10:42:26;;;;;;;1999.90;999.90;;;;;;;19.77;54.21;102043.09;10539772;28;20123;-66
2023/10/15 10:47:34;;;;;;;1999.90;999.90;;;;;;;20.60;53.27;102028.63;10528179;28;20044;-66
2023/10/15 10:52:36;;;;;;;1999.90;999.90;;;;;;;22.11;46.91;102023.19;10530224;28;20052;-66
2023/10/15 10:57:42;;;;;;;1999.90;999.90;;;;;;;22.11;46.71;102034.72;10530122;28;20052;-67
2023/10/15 11:02:44;;;;;;;1999.90;999.90;;;;;;;21.33;49.95;102028.88;10547666;28;20052;-67
2023/10/15 11:07:47;;;;;;;1999.90;999.90;;;;;;;22.94;48.05;102026.53;10546839;28;20052;-67
2023/10/15 11:12:50;;;;;;;1999.90;999.90;;;;;;;21.47;46.16;102025.94;10547174;28;20051;-67
2023/10/15 11:17:56;;;;;;;1999.90;999.90;;;;;;;24.55;44.19;102021.25;10546434;28;20127;-67
2023/10/15 11:23:01;;;;;;;1999.90;999.90;;;;;;;22.77;46.45;102038.75;10528958;28;20048;-67
2023/10/15 11:28:05;;;;;;;1999.90;999.90;;;;;;;23.61;44.56;102030.16;10529191;28;20138;-67
2023/10/15 11:33:11;;;;;;;1999.90;999.90;;;;;;;22.38;44.90;102033.31;10546387;28;20082;-67
2023/10/15 11:38:14;;;;;;;1999.90;999.90;;;;;;;23.39;44.93;102035.84;10528338;28;20059;-67
2023/10/15 11:43:17;;;;;;;1999.90;999.90;;;;;;;20.90;46.33;102038.63;10528215;28;20268;-67
2023/10/15 11:48:21;;;;;;;1999.90;999.90;;;;;;;20.65;47.77;102034.44;10510653;28;20048;-66
2023/10/15 11:53:24;;;;;;;1999.90;999.90;;;;;;;21.38;46.05;102036.50;10527051;28;20497;-66
2023/10/15 11:58:31;;;;;;;1999.90;999.90;;;;;;;19.73;48.02;102045.13;10544408;28;20047;-67
2023/10/15 12:03:36;;;;;;;1999.90;999.90;;;;;;;20.84;48.17;102044.44;10545232;28;20094;-66
2023/10/15 12:08:40;;;;;;;1999.90;999.90;;;;;;;22.01;43.72;102041.84;10544985;28;20101;-67
2023/10/15 12:13:44;;;;;;;1999.90;999.90;;;;;;;22.53;42.92;102034.63;10544737;28;20047;-67
2023/10/15 12:18:46;;;;;;;1999.90;999.90;;;;;;;19.88;45.92;102042.28;10544095;28;20054;-67
2023/10/15 12:23:49;;;;;;;1999.90;999.90;;;;;;;18.89;48.54;102058.41;10544502;28;20089;-66
2023/10/15 12:28:52;;;;;;;1999.90;999.90;;;;;;;19.90;48.59;102058.97;10544266;28;20048;-67
2023/10/15 12:33:56;;;;;;;1999.90;999.90;;;;;;;20.05;46.22;102063.09;10543996;28;20048;-67
2023/10/15 12:38:58;;;;;;;1999.90;999.90;;;;;;;20.69;49.28;102057.16;10543242;28;20510;-67
2023/10/15 12:44:01;;;;;;;1999.90;999.90;;;;;;;21.14;47.94;102046.38;10543504;28;20055;-67
2023/10/15 12:49:03;;;;;;;1999.90;999.90;;;;;;;21.26;45.15;102041.03;10543488;28;20052;-67
2023/10/15 12:54:06;;;;;;;1999.90;999.90;;;;;;;19.73;46.84;102034.50;10542471;28;20135;-67
2023/10/15 12:59:09;;;;;;;1999.90;999.90;;;;;;;20.87;44.85;102044.19;10525350;28;20086;-67
2023/10/15 13:04:11;;;;;;;1999.90;999.90;;;;;;;18.45;44.33;102061.59;10542818;28;20055;-67
2023/10/15 13:09:20;;;;;;;1999.90;999.90;;;;;;;19.65;45.04;102064.31;10524566;28;20048;-67
2023/10/15 13:14:24;;;;;;;1999.90;999.90;;;;;;;18.90;45.58;102073.41;10542423;28;20130;-67
2023/10/15 13:19:26;;;;;;;1999.90;999.90;;;;;;;19.51;47.26;102064.50;10524592;28;20055;-67
2023/10/15 13:24:29;;;;;;;1999.90;999.90;;;;;;;19.06;47.60;102075.78;10523421;28;20386;-66
2023/10/15 13:29:31;;;;;;;1999.90;999.90;;;;;;;19.46;46.81;102080.78;10523940;28;20071;-66
2023/10/15 13:34:34;;;;;;;1999.90;999.90;;;;;;;18.94;48.48;102089.94;10541629;28;20131;-66
2023/10/15 13:39:37;;;;;;;1999.90;999.90;;;;;;;18.63;46.87;102091.28;10541428;28;20052;-66
2023/10/15 13:44:40;;;;;;;1999.90;999.90;;;;;;;18.94;48.06;102092.59;10522783;28;20087;-67
2023/10/15 13:49:42;;;;;;;1999.90;999.90;;;;;;;19.17;48.38;102093.56;10522544;28;20481;-67
2023/10/15 13:54:44;;;;;;;1999.90;999.90;;;;;;;19.33;46.80;102089.78;10540160;28;20446;-66
2023/10/15 13:59:47;;;;;;;1999.90;999.90;;;;;;;20.02;47.52;102092.56;10523061;28;20054;-67
2023/10/15 14:04:51;;;;;;;1999.90;999.90;;;;;;;20.15;47.24;102095.97;10540576;28;20044;-66
2023/10/15 14:09:54;;;;;;;1999.90;999.90;;;;;;;18.29;49.53;102105.09;10522849;28;20087;-67
2023/10/15 14:14:56;;;;;;;1999.90;999.90;;;;;;;17.55;51.00;102101.25;10539665;28;20052;-66
2023/10/15 14:19:59;;;;;;;1999.90;999.90;;;;;;;17.46;51.23;102103.56;10539682;28;20131;-66
2023/10/15 14:25:01;;;;;;;1999.90;999.90;;;;;;;18.53;50.57;102101.69;10521628;28;20431;-66
2023/10/15 14:30:07;;;;;;;1999.90;999.90;;;;;;;18.20;52.17;102108.38;10540010;28;20079;-66
2023/10/15 14:35:10;;;;;;;1999.90;999.90;;;;;;;17.99;52.04;102102.75;10522047;28;20059;-69
2023/10/15 14:40:15;;;;;;;1999.90;999.90;;;;;;;19.80;49.21;102104.00;10539101;28;20552;-67
2023/10/15 14:45:17;;;;;;;1999.90;999.90;;;;;;;19.32;48.52;102110.19;10539674;28;20052;-67
2023/10/15 14:50:20;;;;;;;1999.90;999.90;;;;;;;18.00;52.11;102118.56;10539308;28;20052;-67
2023/10/15 14:55:22;;;;;;;1999.90;999.90;;;;;;;18.19;51.13;102109.34;10521067;28;20487;-66
2023/10/15 15:00:25;;;;;;;1999.90;999.90;;;;;;;18.14;52.08;102116.75;10539347;28;20052;-63
2023/10/15 15:05:28;;;;;;;1999.90;999.90;;;;;;;17.88;51.21;102119.38;10539300;28;20072;-70
2023/10/15 15:10:34;;;;;;;1999.90;999.90;;;;;;;19.14;49.37;102136.25;10539147;28;20079;-72
2023/10/15 15:15:42;;;;;;;1999.90;999.90;;;;;;;18.34;52.12;102142.75;10539211;28;20135;-70
2023/10/15 15:20:45;;;;;;;1999.90;999.90;;;;;;;16.50;52.33;102169.53;10538446;28;20048;-65
2023/10/15 15:25:47;;;;;;;1999.90;999.90;;;;;;;17.60;51.50;102174.16;10538969;28;20054;-65
2023/10/15 15:30:50;;;;;;;1999.90;999.90;;;;;;;17.69;52.24;102164.75;10523121;28;20044;-65
2023/10/15 15:35:54;;;;;;;1999.90;999.90;;;;;;;17.51;52.01;102168.59;10546853;28;20087;-65
2023/10/15 15:41:04;;;;;;;1999.90;999.90;;;;;;;17.79;53.08;102167.66;10528234;28;20051;-65
2023/10/15 15:46:11;;;;;;;1999.90;999.90;;;;;;;16.95;53.89;102163.34;10527659;28;20386;-65
2023/10/15 15:51:15;;;;;;;1999.90;999.90;;;;;;;17.25;53.26;102164.03;10544959;28;20444;-64
2023/10/15 15:56:18;;;;;;;1999.90;999.90;;;;;;;17.27;53.10;102158.66;10544941;28;20481;-65
2023/10/15 16:01:23;;;;;;;1999.90;999.90;;;;;;;17.44;53.63;102168.16;10527431;28;20127;-65
2023/10/15 16:06:45;;;;;;;1999.90;999.90;;;;;;;16.90;54.22;102172.41;10529866;28;20516;-65
2023/10/15 16:11:47;;;;;;;1999.90;999.90;;;;;;;17.01;54.25;102171.75;10544327;28;20058;-65
2023/10/15 16:16:49;;;;;;;1999.90;999.90;;;;;;;16.92;55.05;102171.47;10544195;28;20543;-65
2023/10/15 16:21:52;;;;;;;1999.90;999.90;;;;;;;16.87;55.26;102172.59;10543959;28;20119;-65
2023/10/15 16:26:55;;;;;;;1999.90;999.90;;;;;;;16.89;55.88;102177.78;10544451;28;20064;-65
2023/10/15 16:31:58;;;;;;;1999.90;999.90;;;;;;;16.61;56.68;102171.53;10544158;28;20123;-64
2023/10/15 16:37:01;;;;;;;1999.90;999.90;;;;;;;16.09;56.81;102174.69;10526216;28;20054;-64
2023/10/15 16:42:04;;;;;;;1999.90;999.90;;;;;;;16.05;56.91;102189.00;10524861;28;20449;-64
2023/10/15 16:47:06;;;;;;;1999.90;999.90;;;;;;;15.91;57.77;102189.81;10508615;28;20056;-65
2023/10/15 16:52:08;;;;;;;1999.90;999.90;;;;;;;16.11;57.01;102196.56;10542930;28;20126;-65
2023/10/15 16:57:11;;;;;;;1999.90;999.90;;;;;;;16.53;55.06;102195.78;10524530;28;20056;-64
2023/10/15 17:02:14;;;;;;;1999.90;999.90;;;;;;;16.05;56.31;102204.84;10542950;28;20044;-64
2023/10/15 17:07:18;;;;;;;1999.90;999.90;;;;;;;16.11;56.86;102205.34;10446093;22;20570;-61
2023/10/15 17:12:21;;;;;;;1999.90;999.90;;;;;;;15.56;57.41;102211.09;10370502;28;20103;-61
2023/10/15 17:17:24;;;;;;;1999.90;999.90;;;;;;;16.08;56.79;102216.09;10353594;28;20050;-61
2023/10/15 17:22:26;;;;;;;1999.90;999.90;;;;;;;15.48;57.76;102222.06;10370764;28;20057;-62
2023/10/15 17:27:29;;;;;;;1999.90;999.90;;;;;;;15.71;56.97;102228.72;10370645;28;20057;-61
2023/10/15 17:32:31;;;;;;;1999.90;999.90;;;;;;;15.56;57.47;102235.72;10370477;28;20052;-61
2023/10/15 17:37:33;;;;;;;1999.90;999.90;;;;;;;15.59;57.71;102232.91;10352407;28;20459;-61
2023/10/15 17:42:37;;;;;;;1999.90;999.90;;;;;;;15.58;57.70;102244.41;10370205;28;20099;-62
2023/10/15 17:47:39;;;;;;;1999.90;999.90;;;;;;;15.92;57.14;102246.94;10370037;28;20102;-61
2023/10/15 17:52:42;;;;;;;1999.90;999.90;;;;;;;15.41;57.40;102265.59;10369135;28;20129;-61
2023/10/15 17:57:44;;;;;;;1999.90;999.90;;;;;;;15.59;57.71;102266.38;10368860;28;20234;-61
2023/10/15 18:02:47;;;;;;;1999.90;999.90;;;;;;;15.29;58.27;102264.47;10369620;28;20125;-61
2023/10/15 18:07:49;;;;;;;1999.90;999.90;;;;;;;15.36;58.74;102271.09;10351453;28;20057;-62
2023/10/15 18:12:52;;;;;;;1999.90;999.90;;;;;;;14.95;58.19;102268.91;10369204;28;20095;-62
2023/10/15 18:17:55;;;;;;;1999.90;999.90;;;;;;;15.55;58.07;102278.91;10369218;28;20139;-62
2023/10/15 18:22:59;;;;;;;1999.90;999.90;;;;;;;15.40;57.82;102282.38;10368421;28;20077;-62
2023/10/15 18:28:01;;;;;;;1999.90;999.90;;;;;;;15.08;58.79;102284.06;10368161;28;20481;-61
2023/10/15 18:33:05;;;;;;;1999.90;999.90;;;;;;;14.90;58.91;102283.28;10351450;28;20046;-61
2023/10/15 18:38:07;;;;;;;1999.90;999.90;;;;;;;14.98;59.75;102275.81;10368613;28;20095;-61
2023/10/15 18:43:10;;;;;;;1999.90;999.90;;;;;;;15.37;58.35;102277.25;10367838;28;20553;-62
2023/10/15 18:48:12;;;;;;;1999.90;999.90;;;;;;;14.75;59.30;102275.22;10368372;28;20125;-61
2023/10/15 18:53:15;;;;;;;1999.90;999.90;;;;;;;15.53;58.06;102283.41;10367816;28;20049;-61
2023/10/15 18:58:17;;;;;;;1999.90;999.90;;;;;;;14.74;59.49;102280.56;10368188;28;20054;-62
2023/10/15 19:03:20;;;;;;;1999.90;999.90;;;;;;;15.50;57.94;102299.41;10350976;28;20129;-61
2023/10/15 19:08:22;;;;;;;1999.90;999.90;;;;;;;14.70;59.47;102293.06;10372917;28;20057;-62
2023/10/15 19:13:25;;;;;;;1999.90;999.90;;;;;;;14.76;59.89;102283.97;10374905;28;20050;-61
2023/10/15 19:18:28;;;;;;;1999.90;999.90;;;;;;;14.46;60.66;102285.44;10374152;28;20431;-61
2023/10/15 19:23:30;;;;;;;1999.90;999.90;;;;;;;15.27;58.67;102290.09;10357418;28;20045;-61
2023/10/15 19:28:34;;;;;;;1999.90;999.90;;;;;;;15.39;58.83;102296.50;10373833;28;20046;-61
2023/10/15 19:33:36;;;;;;;1999.90;999.90;;;;;;;15.05;58.87;102290.38;10374223;28;20111;-61
2023/10/15 19:38:39;;;;;;;1999.90;999.90;;;;;;;14.28;60.33;102294.25;10373509;28;20058;-61
2023/10/15 19:43:42;;;;;;;1999.90;999.90;;;;;;;14.86;59.37;102293.09;10356656;28;20080;-61
2023/10/15 19:48:44;;;;;;;1999.90;999.90;;;;;;;14.62;59.59;102300.50;10373201;28;20451;-61
2023/10/15 19:53:47;;;;;;;1999.90;999.90;;;;;;;15.22;58.04;102308.81;10356346;28;20054;-61
2023/10/15 19:58:51;;;;;;;1999.90;999.90;;;;;;;15.09;58.24;102312.19;10372838;28;20072;-62
2023/10/15 20:03:53;;;;;;;1999.90;999.90;;;;;;;14.94;58.42;102309.38;10355755;28;20422;-61
2023/10/15 20:09:12;;;;;;;1999.90;999.90;;;;;;;14.22;61.16;102311.22;10372449;28;20064;-61
2023/10/15 20:14:14;;;;;;;1999.90;999.90;;;;;;;14.44;59.49;102305.75;10372501;28;20049;-62
2023/10/15 20:19:17;;;;;;;1999.90;999.90;;;;;;;14.62;59.28;102314.53;10371999;28;20137;-61
2023/10/15 20:24:19;;;;;;;1999.90;999.90;;;;;;;14.26;59.50;102318.03;10372670;28;20046;-62
2023/10/15 20:29:22;;;;;;;1999.90;999.90;;;;;;;14.59;59.32;102319.97;10372611;28;20057;-61
2023/10/15 20:34:24;;;;;;;1999.90;999.90;;;;;;;14.34;59.72;102322.94;10371809;28;20136;-61
2023/10/15 20:39:27;;;;;;;1999.90;999.90;;;;;;;13.98;60.16;102323.78;10354911;28;20050;-61
2023/10/15 20:44:29;;;;;;;1999.90;999.90;;;;;;;14.40;59.62;102322.63;10371429;28;20448;-61
2023/10/15 20:49:31;;;;;;;1999.90;999.90;;;;;;;14.08;60.29;102326.81;10371284;28;20394;-61
2023/10/15 20:54:34;;;;;;;1999.90;999.90;;;;;;;14.98;58.07;102326.78;10338342;28;20056;-61
2023/10/15 20:59:36;;;;;;;1999.90;999.90;;;;;;;14.61;60.08;102327.81;10370970;28;20064;-61
2023/10/15 21:04:38;;;;;;;1999.90;999.90;;;;;;;14.12;60.17;102329.25;10370573;28;20057;-61
2023/10/15 21:09:42;;;;;;;1999.90;999.90;;;;;;;13.73;61.25;102331.97;10371338;28;20056;-61
2023/10/15 21:14:45;;;;;;;1999.90;999.90;;;;;;;14.76;60.83;102324.38;10370414;28;20412;-61
2023/10/15 21:19:48;;;;;;;1999.90;999.90;;;;;;;14.61;59.64;102319.91;10353631;28;20046;-61
2023/10/15 21:24:50;;;;;;;1999.90;999.90;;;;;;;15.13;59.09;102311.06;10370134;28;20399;-61
2023/10/15 21:29:53;;;;;;;1999.90;999.90;;;;;;;14.52;59.51;102304.50;10370549;28;20099;-61
2023/10/15 21:34:55;;;;;;;1999.90;999.90;;;;;;;13.61;61.89;102308.84;10353484;28;20124;-61
2023/10/15 21:39:58;;;;;;;1999.90;999.90;;;;;;;14.60;60.65;102305.84;10353117;28;20053;-61
2023/10/15 21:45:00;;;;;;;1999.90;999.90;;;;;;;14.29;60.41;102304.72;10352284;28;20501;-61
2023/10/15 21:50:03;;;;;;;1999.90;999.90;;;;;;;14.54;60.94;102303.50;10352218;28;20407;-61
2023/10/15 21:55:06;;;;;;;1999.90;999.90;;;;;;;14.77;59.12;102297.06;10369832;28;20128;-62
2023/10/15 22:00:13;;;;;;;1999.90;999.90;;;;;;;14.42;58.67;102290.91;10369093;28;20086;-62
2023/10/15 22:05:19;;;;;;;1999.90;999.90;;;;;;;14.34;60.24;102293.09;10351983;28;20058;-61